Terminal Aerodrome Forecast
Issued by NWS Sterling, VA

Current Version | Previous Version | Graphics & Text | Print | Product List | Glossary On
Versions: 1 2 3 4 5 6 7 8 9 10 11 12 13 14 15 16 17 18 19 20 21
000
FTUS41 KLWX 220649 AAA
TAFMRB
TAF AMD
KMRB 220649Z 2207/2306 35005KT 2SM -RA BR OVC007
     FM221300 35006KT 3SM -RA BR OVC008
     FM221900 34005KT 3SM -SHRA OVC015
     FM230300 34004KT 3SM BR OVC025=

USA.gov is the U.S. government's official web portal to all federal, state and local government web resources and services.